sensor_id;sensor_type;location;lat;lon;timestamp;temperature;humidity
20680;DHT22;10499;47.494;7.608;2023-03-02T00:02:02;3.20;99.90
20680;DHT22;10499;47.494;7.608;2023-03-02T00:04:51;3.20;99.90
20680;DHT22;10499;47.494;7.608;2023-03-02T00:07:21;3.10;99.90
20680;DHT22;10499;47.494;7.608;2023-03-02T00:09:47;3.10;99.90
20680;DHT22;10499;47.494;7.608;2023-03-02T00:12:14;3.10;99.90
20680;DHT22;10499;47.494;7.608;2023-03-02T00:14:40;3.10;99.90
20680;DHT22;10499;47.494;7.608;2023-03-02T00:17:06;3.20;99.90
20680;DHT22;10499;47.494;7.608;2023-03-02T00:19:35;3.20;99.90
20680;DHT22;10499;47.494;7.608;2023-03-02T00:22:01;3.20;99.90
20680;DHT22;10499;47.494;7.608;2023-03-02T00:24:27;3.20;99.90
20680;DHT22;10499;47.494;7.608;2023-03-02T00:26:52;3.10;99.90
20680;DHT22;10499;47.494;7.608;2023-03-02T00:29:18;3.10;99.90
20680;DHT22;10499;47.494;7.608;2023-03-02T00:31:43;3.10;99.90
20680;DHT22;10499;47.494;7.608;2023-03-02T00:34:09;3.20;99.90
20680;DHT22;10499;47.494;7.608;2023-03-02T00:36:35;3.20;99.90
20680;DHT22;10499;47.494;7.608;2023-03-02T00:39:01;3.20;99.90
20680;DHT22;10499;47.494;7.608;2023-03-02T00:41:27;3.20;99.90
20680;DHT22;10499;47.494;7.608;2023-03-02T00:43:53;3.20;99.90
20680;DHT22;10499;47.494;7.608;2023-03-02T00:46:21;3.10;99.90
20680;DHT22;10499;47.494;7.608;2023-03-02T00:48:48;3.10;99.90
20680;DHT22;10499;47.494;7.608;2023-03-02T00:51:14;3.00;99.90
20680;DHT22;10499;47.494;7.608;2023-03-02T00:53:40;3.00;99.90
20680;DHT22;10499;47.494;7.608;2023-03-02T00:56:07;3.10;99.90
20680;DHT22;10499;47.494;7.608;2023-03-02T00:58:33;3.20;99.90
20680;DHT22;10499;47.494;7.608;2023-03-02T01:01:07;3.20;99.90
20680;DHT22;10499;47.494;7.608;2023-03-02T01:03:34;3.20;99.90
20680;DHT22;10499;47.494;7.608;2023-03-02T01:06:00;3.10;99.90
20680;DHT22;10499;47.494;7.608;2023-03-02T01:08:26;3.20;99.90
20680;DHT22;10499;47.494;7.608;2023-03-02T01:10:51;3.30;99.90
20680;DHT22;10499;47.494;7.608;2023-03-02T01:13:18;3.30;99.90
20680;DHT22;10499;47.494;7.608;2023-03-02T01:15:44;3.30;99.90
20680;DHT22;10499;47.494;7.608;2023-03-02T01:24:54;3.10;99.90
20680;DHT22;10499;47.494;7.608;2023-03-02T01:27:20;3.10;99.90
20680;DHT22;10499;47.494;7.608;2023-03-02T01:29:45;3.10;99.90
20680;DHT22;10499;47.494;7.608;2023-03-02T01:32:11;3.20;99.90
20680;DHT22;10499;47.494;7.608;2023-03-02T01:34:37;3.10;99.90
20680;DHT22;10499;47.494;7.608;2023-03-02T01:37:03;3.20;99.90
20680;DHT22;10499;47.494;7.608;2023-03-02T01:39:28;3.20;99.90
20680;DHT22;10499;47.494;7.608;2023-03-02T01:41:54;3.20;99.90
20680;DHT22;10499;47.494;7.608;2023-03-02T01:44:52;3.20;99.90
20680;DHT22;10499;47.494;7.608;2023-03-02T01:47:25;3.20;99.90
20680;DHT22;10499;47.494;7.608;2023-03-02T01:50:02;3.20;99.90
20680;DHT22;10499;47.494;7.608;2023-03-02T01:52:31;3.10;99.90
20680;DHT22;10499;47.494;7.608;2023-03-02T01:55:00;3.00;99.90
20680;DHT22;10499;47.494;7.608;2023-03-02T01:57:31;3.10;99.90
20680;DHT22;10499;47.494;7.608;2023-03-02T02:00:04;3.20;99.90
20680;DHT22;10499;47.494;7.608;2023-03-02T02:02:33;3.20;99.90
20680;DHT22;10499;47.494;7.608;2023-03-02T02:05:00;3.20;99.90
20680;DHT22;10499;47.494;7.608;2023-03-02T02:07:27;3.10;99.90
20680;DHT22;10499;47.494;7.608;2023-03-02T02:09:53;3.10;99.90
20680;DHT22;10499;47.494;7.608;2023-03-02T02:12:22;3.10;99.90
20680;DHT22;10499;47.494;7.608;2023-03-02T02:14:48;3.10;99.90
20680;DHT22;10499;47.494;7.608;2023-03-02T02:17:15;3.20;99.90
20680;DHT22;10499;47.494;7.608;2023-03-02T02:22:20;3.20;99.90
20680;DHT22;10499;47.494;7.608;2023-03-02T02:24:54;3.10;99.90
20680;DHT22;10499;47.494;7.608;2023-03-02T02:27:23;3.20;99.90
20680;DHT22;10499;47.494;7.608;2023-03-02T02:29:55;3.10;99.90
20680;DHT22;10499;47.494;7.608;2023-03-02T02:32:28;3.20;99.90
20680;DHT22;10499;47.494;7.608;2023-03-02T02:35:22;3.20;99.90
20680;DHT22;10499;47.494;7.608;2023-03-02T02:38:06;3.20;99.90
20680;DHT22;10499;47.494;7.608;2023-03-02T02:40:55;3.20;99.90
20680;DHT22;10499;47.494;7.608;2023-03-02T02:43:22;3.20;99.90
20680;DHT22;10499;47.494;7.608;2023-03-02T02:45:51;3.10;99.90
20680;DHT22;10499;47.494;7.608;2023-03-02T02:48:20;3.20;99.90
20680;DHT22;10499;47.494;7.608;2023-03-02T02:50:47;3.20;99.90
20680;DHT22;10499;47.494;7.608;2023-03-02T02:53:21;3.20;99.90
20680;DHT22;10499;47.494;7.608;2023-03-02T02:55:51;3.20;99.90
20680;DHT22;10499;47.494;7.608;2023-03-02T02:58:32;3.10;99.90
20680;DHT22;10499;47.494;7.608;2023-03-02T03:00:59;3.10;99.90
20680;DHT22;10499;47.494;7.608;2023-03-02T03:03:31;3.10;99.90
20680;DHT22;10499;47.494;7.608;2023-03-02T03:06:00;3.10;99.90
20680;DHT22;10499;47.494;7.608;2023-03-02T03:11:15;3.30;99.90
20680;DHT22;10499;47.494;7.608;2023-03-02T03:13:45;3.30;99.90
20680;DHT22;10499;47.494;7.608;2023-03-02T03:16:14;3.30;99.90
20680;DHT22;10499;47.494;7.608;2023-03-02T03:18:44;3.30;99.90
20680;DHT22;10499;47.494;7.608;2023-03-02T03:21:11;3.20;99.90
20680;DHT22;10499;47.494;7.608;2023-03-02T03:23:37;3.20;99.90
20680;DHT22;10499;47.494;7.608;2023-03-02T03:26:04;3.20;99.90
20680;DHT22;10499;47.494;7.608;2023-03-02T03:28:30;3.10;99.90
20680;DHT22;10499;47.494;7.608;2023-03-02T03:30:57;3.10;99.90
20680;DHT22;10499;47.494;7.608;2023-03-02T03:33:22;3.20;99.90
20680;DHT22;10499;47.494;7.608;2023-03-02T03:35:48;3.20;99.90
20680;DHT22;10499;47.494;7.608;2023-03-02T03:38:14;3.30;99.90
20680;DHT22;10499;47.494;7.608;2023-03-02T03:40:40;3.30;99.90
20680;DHT22;10499;47.494;7.608;2023-03-02T03:43:06;3.30;99.90
20680;DHT22;10499;47.494;7.608;2023-03-02T03:45:32;3.30;99.90
20680;DHT22;10499;47.494;7.608;2023-03-02T03:47:57;3.30;99.90
20680;DHT22;10499;47.494;7.608;2023-03-02T03:50:23;3.20;99.90
20680;DHT22;10499;47.494;7.608;2023-03-02T03:52:49;3.20;99.90
20680;DHT22;10499;47.494;7.608;2023-03-02T03:55:15;3.20;99.90
20680;DHT22;10499;47.494;7.608;2023-03-02T03:57:41;3.10;99.90
20680;DHT22;10499;47.494;7.608;2023-03-02T04:00:09;3.10;99.90
20680;DHT22;10499;47.494;7.608;2023-03-02T04:02:36;3.10;99.90
20680;DHT22;10499;47.494;7.608;2023-03-02T04:05:02;3.10;99.90
20680;DHT22;10499;47.494;7.608;2023-03-02T04:07:31;3.20;99.90
20680;DHT22;10499;47.494;7.608;2023-03-02T04:09:57;3.20;99.90
20680;DHT22;10499;47.494;7.608;2023-03-02T04:12:37;3.20;99.90
20680;DHT22;10499;47.494;7.608;2023-03-02T04:15:05;3.20;99.90
20680;DHT22;10499;47.494;7.608;2023-03-02T04:17:31;3.20;99.90
20680;DHT22;10499;47.494;7.608;2023-03-02T04:19:57;3.10;99.90
20680;DHT22;10499;47.494;7.608;2023-03-02T04:22:24;3.20;99.90
20680;DHT22;10499;47.494;7.608;2023-03-02T04:24:49;3.20;99.90
20680;DHT22;10499;47.494;7.608;2023-03-02T04:27:15;3.20;99.90
20680;DHT22;10499;47.494;7.608;2023-03-02T04:29:41;3.20;99.90
20680;DHT22;10499;47.494;7.608;2023-03-02T04:32:08;3.20;99.90
20680;DHT22;10499;47.494;7.608;2023-03-02T04:34:34;3.10;99.90
20680;DHT22;10499;47.494;7.608;2023-03-02T04:37:00;3.20;99.90
20680;DHT22;10499;47.494;7.608;2023-03-02T04:39:26;3.20;99.90
20680;DHT22;10499;47.494;7.608;2023-03-02T04:41:52;3.20;99.90
20680;DHT22;10499;47.494;7.608;2023-03-02T04:44:19;3.20;99.90
20680;DHT22;10499;47.494;7.608;2023-03-02T04:46:45;3.20;99.90
20680;DHT22;10499;47.494;7.608;2023-03-02T04:49:13;3.30;99.90
20680;DHT22;10499;47.494;7.608;2023-03-02T04:51:40;3.30;99.90
20680;DHT22;10499;47.494;7.608;2023-03-02T04:54:12;3.30;99.90
20680;DHT22;10499;47.494;7.608;2023-03-02T04:56:38;3.20;99.90
20680;DHT22;10499;47.494;7.608;2023-03-02T04:59:03;3.20;99.90
20680;DHT22;10499;47.494;7.608;2023-03-02T05:01:29;3.20;99.90
20680;DHT22;10499;47.494;7.608;2023-03-02T05:03:55;3.20;99.90
20680;DHT22;10499;47.494;7.608;2023-03-02T05:06:21;3.10;99.90
20680;DHT22;10499;47.494;7.608;2023-03-02T05:08:49;3.10;99.90
20680;DHT22;10499;47.494;7.608;2023-03-02T05:11:15;3.10;99.90
20680;DHT22;10499;47.494;7.608;2023-03-02T05:13:48;3.20;99.90
20680;DHT22;10499;47.494;7.608;2023-03-02T05:16:13;3.20;99.90
20680;DHT22;10499;47.494;7.608;2023-03-02T05:18:39;3.10;99.90
20680;DHT22;10499;47.494;7.608;2023-03-02T05:21:05;3.20;99.90
20680;DHT22;10499;47.494;7.608;2023-03-02T05:23:31;3.10;99.90
20680;DHT22;10499;47.494;7.608;2023-03-02T05:25:56;3.10;99.90
20680;DHT22;10499;47.494;7.608;2023-03-02T05:28:24;3.10;99.90
20680;DHT22;10499;47.494;7.608;2023-03-02T05:30:50;2.90;99.90
20680;DHT22;10499;47.494;7.608;2023-03-02T05:33:16;2.90;99.90
20680;DHT22;10499;47.494;7.608;2023-03-02T05:35:43;3.00;99.90
20680;DHT22;10499;47.494;7.608;2023-03-02T05:38:09;3.00;99.90
20680;DHT22;10499;47.494;7.608;2023-03-02T05:40:35;3.00;99.50
20680;DHT22;10499;47.494;7.608;2023-03-02T05:43:01;3.00;99.30
20680;DHT22;10499;47.494;7.608;2023-03-02T05:45:29;2.90;99.90
20680;DHT22;10499;47.494;7.608;2023-03-02T05:47:54;2.90;99.90
20680;DHT22;10499;47.494;7.608;2023-03-02T05:50:20;2.90;99.90
20680;DHT22;10499;47.494;7.608;2023-03-02T05:52:46;2.90;99.90
20680;DHT22;10499;47.494;7.608;2023-03-02T05:55:16;3.00;99.90
20680;DHT22;10499;47.494;7.608;2023-03-02T05:57:42;2.90;99.90
20680;DHT22;10499;47.494;7.608;2023-03-02T06:00:09;3.00;99.90
20680;DHT22;10499;47.494;7.608;2023-03-02T06:02:36;2.90;99.90
20680;DHT22;10499;47.494;7.608;2023-03-02T06:05:07;2.80;99.90
20680;DHT22;10499;47.494;7.608;2023-03-02T06:07:32;2.90;99.90
20680;DHT22;10499;47.494;7.608;2023-03-02T06:09:58;2.80;99.90
20680;DHT22;10499;47.494;7.608;2023-03-02T06:12:24;2.80;99.90
20680;DHT22;10499;47.494;7.608;2023-03-02T06:14:50;2.80;99.90
20680;DHT22;10499;47.494;7.608;2023-03-02T06:17:15;2.90;99.90
20680;DHT22;10499;47.494;7.608;2023-03-02T06:19:41;2.90;99.90
20680;DHT22;10499;47.494;7.608;2023-03-02T06:22:07;2.80;99.90
20680;DHT22;10499;47.494;7.608;2023-03-02T06:24:32;2.80;99.90
20680;DHT22;10499;47.494;7.608;2023-03-02T06:26:58;2.90;99.90
20680;DHT22;10499;47.494;7.608;2023-03-02T06:29:24;2.90;99.90
20680;DHT22;10499;47.494;7.608;2023-03-02T06:31:50;2.90;99.90
20680;DHT22;10499;47.494;7.608;2023-03-02T06:34:15;2.80;99.90
20680;DHT22;10499;47.494;7.608;2023-03-02T06:36:41;2.80;99.90
20680;DHT22;10499;47.494;7.608;2023-03-02T06:39:07;2.80;99.90
20680;DHT22;10499;47.494;7.608;2023-03-02T06:41:43;2.70;99.90
20680;DHT22;10499;47.494;7.608;2023-03-02T06:44:09;2.80;99.90
20680;DHT22;10499;47.494;7.608;2023-03-02T06:46:36;2.80;99.90
20680;DHT22;10499;47.494;7.608;2023-03-02T06:49:02;2.80;99.90
20680;DHT22;10499;47.494;7.608;2023-03-02T06:51:28;2.80;99.90
20680;DHT22;10499;47.494;7.608;2023-03-02T06:53:54;2.90;99.90
20680;DHT22;10499;47.494;7.608;2023-03-02T06:56:19;2.90;99.90
20680;DHT22;10499;47.494;7.608;2023-03-02T06:58:45;2.90;99.90
20680;DHT22;10499;47.494;7.608;2023-03-02T07:01:11;3.00;99.90
20680;DHT22;10499;47.494;7.608;2023-03-02T07:03:36;3.00;99.90
20680;DHT22;10499;47.494;7.608;2023-03-02T07:06:02;3.00;99.90
20680;DHT22;10499;47.494;7.608;2023-03-02T07:08:28;3.00;99.90
20680;DHT22;10499;47.494;7.608;2023-03-02T07:10:54;3.00;99.90
20680;DHT22;10499;47.494;7.608;2023-03-02T07:13:20;2.90;99.90
20680;DHT22;10499;47.494;7.608;2023-03-02T07:15:45;3.00;99.90
20680;DHT22;10499;47.494;7.608;2023-03-02T07:18:11;3.00;99.90
20680;DHT22;10499;47.494;7.608;2023-03-02T07:20:37;3.10;99.00
20680;DHT22;10499;47.494;7.608;2023-03-02T07:23:03;3.10;98.70
20680;DHT22;10499;47.494;7.608;2023-03-02T07:25:29;3.10;98.50
20680;DHT22;10499;47.494;7.608;2023-03-02T07:27:55;3.20;98.00
20680;DHT22;10499;47.494;7.608;2023-03-02T07:30:21;3.20;98.20
20680;DHT22;10499;47.494;7.608;2023-03-02T07:32:47;3.20;97.80
20680;DHT22;10499;47.494;7.608;2023-03-02T07:35:13;3.20;98.10
20680;DHT22;10499;47.494;7.608;2023-03-02T07:37:39;3.20;98.50
20680;DHT22;10499;47.494;7.608;2023-03-02T07:40:05;3.20;99.00
20680;DHT22;10499;47.494;7.608;2023-03-02T07:42:32;3.30;98.70
20680;DHT22;10499;47.494;7.608;2023-03-02T07:44:58;3.30;99.30
20680;DHT22;10499;47.494;7.608;2023-03-02T07:47:24;3.40;98.30
20680;DHT22;10499;47.494;7.608;2023-03-02T07:49:49;3.40;98.70
20680;DHT22;10499;47.494;7.608;2023-03-02T07:52:15;3.40;98.40
20680;DHT22;10499;47.494;7.608;2023-03-02T07:54:41;3.40;98.20
20680;DHT22;10499;47.494;7.608;2023-03-02T07:57:07;3.30;98.10
20680;DHT22;10499;47.494;7.608;2023-03-02T07:59:32;3.40;98.00
20680;DHT22;10499;47.494;7.608;2023-03-02T08:01:58;3.40;98.60
20680;DHT22;10499;47.494;7.608;2023-03-02T08:04:24;3.50;97.90
20680;DHT22;10499;47.494;7.608;2023-03-02T08:06:50;3.50;97.90
20680;DHT22;10499;47.494;7.608;2023-03-02T08:09:16;3.60;97.60
20680;DHT22;10499;47.494;7.608;2023-03-02T08:11:41;3.60;97.20
20680;DHT22;10499;47.494;7.608;2023-03-02T08:14:07;3.70;96.70
20680;DHT22;10499;47.494;7.608;2023-03-02T08:16:33;3.70;96.70
20680;DHT22;10499;47.494;7.608;2023-03-02T08:18:59;3.70;95.90
20680;DHT22;10499;47.494;7.608;2023-03-02T08:21:26;3.70;96.70
20680;DHT22;10499;47.494;7.608;2023-03-02T08:23:52;3.70;96.60
20680;DHT22;10499;47.494;7.608;2023-03-02T08:26:18;3.80;96.90
20680;DHT22;10499;47.494;7.608;2023-03-02T08:28:45;3.80;96.50
20680;DHT22;10499;47.494;7.608;2023-03-02T08:31:11;3.80;96.60
20680;DHT22;10499;47.494;7.608;2023-03-02T08:33:37;3.90;96.10
20680;DHT22;10499;47.494;7.608;2023-03-02T08:36:06;3.90;95.70
20680;DHT22;10499;47.494;7.608;2023-03-02T08:38:32;4.00;95.40
20680;DHT22;10499;47.494;7.608;2023-03-02T08:40:58;4.10;95.00
20680;DHT22;10499;47.494;7.608;2023-03-02T08:43:24;4.10;94.60
20680;DHT22;10499;47.494;7.608;2023-03-02T08:45:54;4.10;94.40
20680;DHT22;10499;47.494;7.608;2023-03-02T08:48:22;4.10;94.50
20680;DHT22;10499;47.494;7.608;2023-03-02T08:53:24;4.20;94.00
20680;DHT22;10499;47.494;7.608;2023-03-02T08:55:50;4.20;93.80
20680;DHT22;10499;47.494;7.608;2023-03-02T08:58:16;4.10;93.90
20680;DHT22;10499;47.494;7.608;2023-03-02T09:00:43;4.20;93.70
20680;DHT22;10499;47.494;7.608;2023-03-02T09:03:08;4.30;93.60
20680;DHT22;10499;47.494;7.608;2023-03-02T09:05:34;4.30;93.40
20680;DHT22;10499;47.494;7.608;2023-03-02T09:08:00;4.20;93.50
20680;DHT22;10499;47.494;7.608;2023-03-02T09:10:26;4.30;93.30
20680;DHT22;10499;47.494;7.608;2023-03-02T09:12:52;4.20;93.50
20680;DHT22;10499;47.494;7.608;2023-03-02T09:15:17;4.40;93.60
20680;DHT22;10499;47.494;7.608;2023-03-02T09:17:43;4.50;93.20
20680;DHT22;10499;47.494;7.608;2023-03-02T09:20:09;4.50;92.70
20680;DHT22;10499;47.494;7.608;2023-03-02T09:22:35;4.50;92.70
20680;DHT22;10499;47.494;7.608;2023-03-02T09:25:02;4.50;92.60
20680;DHT22;10499;47.494;7.608;2023-03-02T09:27:28;4.60;92.60
20680;DHT22;10499;47.494;7.608;2023-03-02T09:29:54;4.70;92.30
20680;DHT22;10499;47.494;7.608;2023-03-02T09:32:19;4.70;91.80
20680;DHT22;10499;47.494;7.608;2023-03-02T09:34:45;4.70;92.00
20680;DHT22;10499;47.494;7.608;2023-03-02T09:37:11;4.70;92.20
20680;DHT22;10499;47.494;7.608;2023-03-02T09:39:37;4.80;91.80
20680;DHT22;10499;47.494;7.608;2023-03-02T09:42:26;4.70;91.80
20680;DHT22;10499;47.494;7.608;2023-03-02T09:55:33;4.90;91.40
20680;DHT22;10499;47.494;7.608;2023-03-02T09:58:02;4.90;91.20
20680;DHT22;10499;47.494;7.608;2023-03-02T10:00:32;4.80;91.10
20680;DHT22;10499;47.494;7.608;2023-03-02T10:03:04;4.90;91.30
20680;DHT22;10499;47.494;7.608;2023-03-02T10:05:41;4.90;91.50
20680;DHT22;10499;47.494;7.608;2023-03-02T10:08:13;5.00;91.20
20680;DHT22;10499;47.494;7.608;2023-03-02T10:13:48;5.40;90.20
20680;DHT22;10499;47.494;7.608;2023-03-02T10:26:44;5.50;89.20
20680;DHT22;10499;47.494;7.608;2023-03-02T10:32:31;5.90;87.50
20680;DHT22;10499;47.494;7.608;2023-03-02T10:35:01;6.00;87.10
20680;DHT22;10499;47.494;7.608;2023-03-02T10:37:34;6.20;86.60
20680;DHT22;10499;47.494;7.608;2023-03-02T10:40:00;6.30;85.80
20680;DHT22;10499;47.494;7.608;2023-03-02T10:42:29;6.30;85.80
20680;DHT22;10499;47.494;7.608;2023-03-02T10:47:39;6.30;85.50
20680;DHT22;10499;47.494;7.608;2023-03-02T10:50:20;6.30;85.70
20680;DHT22;10499;47.494;7.608;2023-03-02T10:52:49;6.10;85.90
20680;DHT22;10499;47.494;7.608;2023-03-02T10:55:16;6.20;85.60
20680;DHT22;10499;47.494;7.608;2023-03-02T10:57:44;6.40;85.30
20680;DHT22;10499;47.494;7.608;2023-03-02T11:00:26;6.50;85.00
20680;DHT22;10499;47.494;7.608;2023-03-02T11:02:55;6.40;85.30
20680;DHT22;10499;47.494;7.608;2023-03-02T11:05:34;6.50;85.20
20680;DHT22;10499;47.494;7.608;2023-03-02T11:08:10;6.40;85.00
20680;DHT22;10499;47.494;7.608;2023-03-02T11:10:57;6.50;85.00
20680;DHT22;10499;47.494;7.608;2023-03-02T11:13:32;6.40;85.40
20680;DHT22;10499;47.494;7.608;2023-03-02T11:16:19;6.50;85.20
20680;DHT22;10499;47.494;7.608;2023-03-02T11:21:37;6.80;84.10
20680;DHT22;10499;47.494;7.608;2023-03-02T11:24:38;6.70;84.10
20680;DHT22;10499;47.494;7.608;2023-03-02T11:27:07;6.70;84.60
20680;DHT22;10499;47.494;7.608;2023-03-02T11:29:51;6.90;83.20
20680;DHT22;10499;47.494;7.608;2023-03-02T11:35:32;6.90;83.10
20680;DHT22;10499;47.494;7.608;2023-03-02T11:38:20;6.70;84.20
20680;DHT22;10499;47.494;7.608;2023-03-02T11:40:57;7.00;83.40
20680;DHT22;10499;47.494;7.608;2023-03-02T11:43:25;7.20;82.10
20680;DHT22;10499;47.494;7.608;2023-03-02T11:46:01;7.20;82.30
20680;DHT22;10499;47.494;7.608;2023-03-02T11:48:35;7.20;82.30
20680;DHT22;10499;47.494;7.608;2023-03-02T11:51:13;7.30;81.50
20680;DHT22;10499;47.494;7.608;2023-03-02T11:53:57;7.20;81.30
20680;DHT22;10499;47.494;7.608;2023-03-02T11:56:24;7.20;81.50
20680;DHT22;10499;47.494;7.608;2023-03-02T11:58:55;7.30;81.30
20680;DHT22;10499;47.494;7.608;2023-03-02T12:01:24;7.40;81.30
20680;DHT22;10499;47.494;7.608;2023-03-02T12:03:51;7.70;81.50
20680;DHT22;10499;47.494;7.608;2023-03-02T12:08:44;8.40;78.10
20680;DHT22;10499;47.494;7.608;2023-03-02T12:13:59;8.80;76.90
20680;DHT22;10499;47.494;7.608;2023-03-02T12:16:35;8.90;75.60
20680;DHT22;10499;47.494;7.608;2023-03-02T12:19:23;9.00;75.00
20680;DHT22;10499;47.494;7.608;2023-03-02T12:22:07;9.40;74.20
20680;DHT22;10499;47.494;7.608;2023-03-02T12:24:43;9.60;72.40
20680;DHT22;10499;47.494;7.608;2023-03-02T12:29:42;10.60;70.10
20680;DHT22;10499;47.494;7.608;2023-03-02T12:32:29;10.80;68.70
20680;DHT22;10499;47.494;7.608;2023-03-02T12:35:03;10.80;68.20
20680;DHT22;10499;47.494;7.608;2023-03-02T12:37:50;10.60;68.70
20680;DHT22;10499;47.494;7.608;2023-03-02T12:46:52;11.30;67.00
20680;DHT22;10499;47.494;7.608;2023-03-02T12:52:19;12.10;64.30
20680;DHT22;10499;47.494;7.608;2023-03-02T12:54:45;12.70;62.60
20680;DHT22;10499;47.494;7.608;2023-03-02T12:57:16;13.50;60.10
20680;DHT22;10499;47.494;7.608;2023-03-02T12:59:50;13.70;58.70
20680;DHT22;10499;47.494;7.608;2023-03-02T13:02:23;13.60;59.30
20680;DHT22;10499;47.494;7.608;2023-03-02T13:05:00;13.10;59.50
20680;DHT22;10499;47.494;7.608;2023-03-02T13:07:37;13.10;59.70
20680;DHT22;10499;47.494;7.608;2023-03-02T13:10:39;13.10;60.10
20680;DHT22;10499;47.494;7.608;2023-03-02T13:13:18;13.70;58.60
20680;DHT22;10499;47.494;7.608;2023-03-02T13:15:49;14.10;57.80
20680;DHT22;10499;47.494;7.608;2023-03-02T13:18:15;14.00;57.30
20680;DHT22;10499;47.494;7.608;2023-03-02T13:20:41;14.10;57.30
20680;DHT22;10499;47.494;7.608;2023-03-02T13:23:13;14.60;56.10
20680;DHT22;10499;47.494;7.608;2023-03-02T13:28:32;15.30;55.40
20680;DHT22;10499;47.494;7.608;2023-03-02T13:31:05;14.90;54.60
20680;DHT22;10499;47.494;7.608;2023-03-02T13:33:33;14.70;55.90
20680;DHT22;10499;47.494;7.608;2023-03-02T13:36:00;15.40;54.70
20680;DHT22;10499;47.494;7.608;2023-03-02T13:38:31;15.50;53.40
20680;DHT22;10499;47.494;7.608;2023-03-02T13:40:58;16.10;52.40
20680;DHT22;10499;47.494;7.608;2023-03-02T13:45:59;15.90;52.50
20680;DHT22;10499;47.494;7.608;2023-03-02T13:48:25;16.10;52.50
20680;DHT22;10499;47.494;7.608;2023-03-02T13:51:15;16.00;51.70
20680;DHT22;10499;47.494;7.608;2023-03-02T13:54:02;15.60;52.40
20680;DHT22;10499;47.494;7.608;2023-03-02T13:56:37;15.70;52.90
20680;DHT22;10499;47.494;7.608;2023-03-02T13:59:12;15.30;52.90
20680;DHT22;10499;47.494;7.608;2023-03-02T14:01:38;15.30;52.80
20680;DHT22;10499;47.494;7.608;2023-03-02T14:04:08;15.80;52.40
20680;DHT22;10499;47.494;7.608;2023-03-02T14:06:35;16.00;52.00
20680;DHT22;10499;47.494;7.608;2023-03-02T14:09:00;15.70;52.00
20680;DHT22;10499;47.494;7.608;2023-03-02T14:11:30;15.30;52.10
20680;DHT22;10499;47.494;7.608;2023-03-02T14:13:58;15.20;52.80
20680;DHT22;10499;47.494;7.608;2023-03-02T14:16:26;15.20;53.20
20680;DHT22;10499;47.494;7.608;2023-03-02T14:18:52;15.30;52.70
20680;DHT22;10499;47.494;7.608;2023-03-02T14:21:22;15.20;52.50
20680;DHT22;10499;47.494;7.608;2023-03-02T14:23:48;15.00;52.70
20680;DHT22;10499;47.494;7.608;2023-03-02T14:26:33;14.60;53.50
20680;DHT22;10499;47.494;7.608;2023-03-02T14:29:24;14.70;53.70
20680;DHT22;10499;47.494;7.608;2023-03-02T14:31:51;14.30;54.30
20680;DHT22;10499;47.494;7.608;2023-03-02T14:34:17;14.20;54.90
20680;DHT22;10499;47.494;7.608;2023-03-02T14:36:46;14.30;54.50
20680;DHT22;10499;47.494;7.608;2023-03-02T14:39:21;14.10;54.60
20680;DHT22;10499;47.494;7.608;2023-03-02T14:41:48;13.80;55.60
20680;DHT22;10499;47.494;7.608;2023-03-02T14:44:14;14.00;55.00
20680;DHT22;10499;47.494;7.608;2023-03-02T14:46:40;14.40;54.50
20680;DHT22;10499;47.494;7.608;2023-03-02T14:49:05;14.30;54.30
20680;DHT22;10499;47.494;7.608;2023-03-02T14:51:33;14.00;54.90
20680;DHT22;10499;47.494;7.608;2023-03-02T14:54:02;13.80;55.10
20680;DHT22;10499;47.494;7.608;2023-03-02T14:56:29;13.50;55.70
20680;DHT22;10499;47.494;7.608;2023-03-02T14:58:58;13.10;56.30
20680;DHT22;10499;47.494;7.608;2023-03-02T15:01:24;12.80;57.50
20680;DHT22;10499;47.494;7.608;2023-03-02T15:03:50;12.80;57.60
20680;DHT22;10499;47.494;7.608;2023-03-02T15:08:48;13.00;57.40
20680;DHT22;10499;47.494;7.608;2023-03-02T15:11:13;12.40;58.60
20680;DHT22;10499;47.494;7.608;2023-03-02T15:13:39;12.30;59.20
20680;DHT22;10499;47.494;7.608;2023-03-02T15:16:05;12.40;59.30
20680;DHT22;10499;47.494;7.608;2023-03-02T15:18:31;12.10;59.50
20680;DHT22;10499;47.494;7.608;2023-03-02T15:20:56;12.20;59.50
20680;DHT22;10499;47.494;7.608;2023-03-02T15:23:22;11.90;59.80
20680;DHT22;10499;47.494;7.608;2023-03-02T15:25:47;11.60;60.70
20680;DHT22;10499;47.494;7.608;2023-03-02T15:28:13;11.70;60.80
20680;DHT22;10499;47.494;7.608;2023-03-02T15:30:39;11.40;61.40
20680;DHT22;10499;47.494;7.608;2023-03-02T15:33:05;11.30;61.70
20680;DHT22;10499;47.494;7.608;2023-03-02T15:35:31;11.20;62.20
20680;DHT22;10499;47.494;7.608;2023-03-02T15:37:57;11.10;62.50
20680;DHT22;10499;47.494;7.608;2023-03-02T15:40:26;10.90;62.80
20680;DHT22;10499;47.494;7.608;2023-03-02T15:42:52;10.60;64.20
20680;DHT22;10499;47.494;7.608;2023-03-02T15:45:18;10.50;64.90
20680;DHT22;10499;47.494;7.608;2023-03-02T15:47:44;10.30;65.40
20680;DHT22;10499;47.494;7.608;2023-03-02T15:50:10;10.30;65.50
20680;DHT22;10499;47.494;7.608;2023-03-02T15:52:36;10.10;65.80
20680;DHT22;10499;47.494;7.608;2023-03-02T15:55:02;10.10;66.20
20680;DHT22;10499;47.494;7.608;2023-03-02T15:57:27;9.90;67.00
20680;DHT22;10499;47.494;7.608;2023-03-02T15:59:53;9.90;67.20
20680;DHT22;10499;47.494;7.608;2023-03-02T16:02:19;9.90;67.50
20680;DHT22;10499;47.494;7.608;2023-03-02T16:04:44;10.00;67.20
20680;DHT22;10499;47.494;7.608;2023-03-02T16:07:10;9.90;67.40
20680;DHT22;10499;47.494;7.608;2023-03-02T16:09:35;9.70;67.80
20680;DHT22;10499;47.494;7.608;2023-03-02T16:12:01;9.60;68.10
20680;DHT22;10499;47.494;7.608;2023-03-02T16:14:27;9.60;68.00
20680;DHT22;10499;47.494;7.608;2023-03-02T16:16:52;9.40;68.50
20680;DHT22;10499;47.494;7.608;2023-03-02T16:19:18;9.40;69.10
20680;DHT22;10499;47.494;7.608;2023-03-02T16:21:45;9.10;69.80
20680;DHT22;10499;47.494;7.608;2023-03-02T16:24:10;9.10;70.50
20680;DHT22;10499;47.494;7.608;2023-03-02T16:26:37;8.90;70.90
20680;DHT22;10499;47.494;7.608;2023-03-02T16:29:04;8.90;71.30
20680;DHT22;10499;47.494;7.608;2023-03-02T16:31:32;8.90;71.30
20680;DHT22;10499;47.494;7.608;2023-03-02T16:34:02;8.70;71.90
20680;DHT22;10499;47.494;7.608;2023-03-02T16:36:32;8.60;72.80
20680;DHT22;10499;47.494;7.608;2023-03-02T16:38:58;8.30;73.10
20680;DHT22;10499;47.494;7.608;2023-03-02T16:41:24;8.20;73.50
20680;DHT22;10499;47.494;7.608;2023-03-02T16:43:55;8.10;74.00
20680;DHT22;10499;47.494;7.608;2023-03-02T16:46:23;8.00;74.60
20680;DHT22;10499;47.494;7.608;2023-03-02T16:48:50;7.90;75.40
20680;DHT22;10499;47.494;7.608;2023-03-02T16:51:17;7.80;76.50
20680;DHT22;10499;47.494;7.608;2023-03-02T16:53:42;7.70;77.00
20680;DHT22;10499;47.494;7.608;2023-03-02T16:56:09;7.50;77.80
20680;DHT22;10499;47.494;7.608;2023-03-02T16:58:35;7.30;78.50
20680;DHT22;10499;47.494;7.608;2023-03-02T17:01:12;7.30;79.20
20680;DHT22;10499;47.494;7.608;2023-03-02T17:03:38;7.10;79.70
20680;DHT22;10499;47.494;7.608;2023-03-02T17:06:08;7.00;80.60
20680;DHT22;10499;47.494;7.608;2023-03-02T17:08:34;7.00;80.50